Terminal Aerodrome Forecast
Issued by NWS Quad Cities IA IL

Home | Current Version | Previous Version | Text Only | Print | Product List | Glossary On
Versions: 1 2 3 4 5 6 7 8 9 10 11 12 13 14 15 16 17 18 19 20 21
000
FTUS43 KDVN 301945 AAA
TAFDBQ
TAF AMD
KDBQ 301945Z 3020/3118 05017G25KT 6SM BR VCSH OVC012
      TEMPO 3020/3022 4SM -RA BR OVC008
     FM302300 05018G26KT P6SM BKN018
     FM310200 05008KT P6SM BKN030
     FM310300 04009KT P6SM FEW030=

USA.gov is the U.S. government's official web portal to all federal, state and local government web resources and services.